Aérodrome :
LOGIN :

S'inscrire | Disclaimer

   EN    FR    IT 

 










Légende :    VFR   VFR Marginal   IFR   IFR Intensif   IFR Très Intensif
Visi : 
Plafond : 
>= 8 km
>= 3000ft
5 à 8 km
1000 à 3000 ft
1500m à 5 km
500 à 1000 ft
800 à 1500m
200 à 500 ft
< 800m
< 200 ft
Symboles :   Orages  Brouillard  Fortes neiges  Fortes précipitations  Vent > 20 kt
SIGMETs :   Divers  Orages  Givrage  Turbulence  Onde Orograph.  Cendres Volcan.






- Altitude de l'aérodrome : 13 ft
- Code IATA : OST


EBOS - Oostend bruges Int.

DERNIER METAR :
  • 260950Z VRB01KT 1200 R08/1300N R26/1600N BR FEW003 SCT004 BKN005 09/08 Q1021 BECMG 2000 BR

METARs EXPIRÉS :
  • 260920Z 08002KT 0600 R08/1000U R26/1200U FG FEW001 SCT002 BKN004 08/08 Q1021 BECMG 1500 BR SCT003 BKN005
  • 260850Z 14002KT 0200 R08/0450N R26/0450N FG BKN001 08/08 Q1021 TEMPO 0800 FG BKN002
  • 260820Z 17003KT 0150 R08/0300N R26/0325N FG BKN001 08/08 Q1021 NOSIG
  • 260750Z 18003KT 0100 R08/0275N R26/0350N FG BKN001 08/08 Q1020 NOSIG
  • 260720Z 00000KT 0150 R08/0325N R26/0375N FG BKN001 08/08 Q1020 NOSIG
  • 260650Z 16002KT 0200 R08/0450N R26/0500N FG BKN001 08/08 Q1020 NOSIG

TAF AMD TAF EBOS
Valide du 26 à 06h jusqu'au 27 à 12h UTC


260730Z 2606/2712 VRB03KT 7000 SCT008 BKN012
TEMPO 2606/2613 2500 -DZ BR SCT004 BKN006
TEMPO 2606/2612 0150 FG BKN001
TEMPO 2613/2618 BKN018
PROB40
TEMPO 2618/2712 2500 -RADZ BR SCT004 BKN006
PROB30
TEMPO 2702/2712 0800 BCFG



MET'MAP, la Météo Aéronautique d'un coup d'oeil ! - Copyright ORBIFLY Décembre 2007 - Disclaimer

ORBIFLY MET'MAP TEAM :

Programmation & Développement : Alexandra Zaïnal
Sur une idée originale de : Baudouin d'Aumeries
Assistance à la programmation : Marc-Olivier Méhu
Soutien technique & logistique : Manuel Goepfert

Contact : metmap@orbifly.com




SOURCES & CREDITS :

   NOAA